sensor_id;sensor_type;location;lat;lon;timestamp;P1;durP1;ratioP1;P2;durP2;ratioP2
18520;SDS011;9390;51.244;6.982;2023-05-07T00:01:38;9.90;;;5.00;;
18520;SDS011;9390;51.244;6.982;2023-05-07T00:04:09;13.23;;;5.25;;
18520;SDS011;9390;51.244;6.982;2023-05-07T00:06:41;10.82;;;5.35;;
18520;SDS011;9390;51.244;6.982;2023-05-07T00:09:12;12.20;;;5.57;;
18520;SDS011;9390;51.244;6.982;2023-05-07T00:11:44;10.02;;;5.40;;
18520;SDS011;9390;51.244;6.982;2023-05-07T00:14:15;10.57;;;5.05;;
18520;SDS011;9390;51.244;6.982;2023-05-07T00:16:48;13.65;;;4.70;;
18520;SDS011;9390;51.244;6.982;2023-05-07T00:19:19;13.65;;;5.22;;
18520;SDS011;9390;51.244;6.982;2023-05-07T00:21:51;10.07;;;4.47;;
18520;SDS011;9390;51.244;6.982;2023-05-07T00:24:23;7.05;;;3.80;;
18520;SDS011;9390;51.244;6.982;2023-05-07T00:26:55;12.30;;;4.35;;
18520;SDS011;9390;51.244;6.982;2023-05-07T00:29:28;8.63;;;4.03;;
18520;SDS011;9390;51.244;6.982;2023-05-07T00:32:00;8.20;;;3.83;;
18520;SDS011;9390;51.244;6.982;2023-05-07T00:34:32;11.38;;;3.97;;
18520;SDS011;9390;51.244;6.982;2023-05-07T00:37:03;7.43;;;3.85;;
18520;SDS011;9390;51.244;6.982;2023-05-07T00:39:34;10.50;;;4.32;;
18520;SDS011;9390;51.244;6.982;2023-05-07T00:42:06;7.45;;;3.90;;
18520;SDS011;9390;51.244;6.982;2023-05-07T00:44:38;8.18;;;3.95;;
18520;SDS011;9390;51.244;6.982;2023-05-07T00:47:10;7.10;;;3.67;;
18520;SDS011;9390;51.244;6.982;2023-05-07T00:49:43;8.35;;;3.75;;
18520;SDS011;9390;51.244;6.982;2023-05-07T00:52:16;8.55;;;4.35;;
18520;SDS011;9390;51.244;6.982;2023-05-07T00:54:47;9.10;;;4.10;;
18520;SDS011;9390;51.244;6.982;2023-05-07T00:57:19;9.18;;;4.07;;
18520;SDS011;9390;51.244;6.982;2023-05-07T00:59:52;6.55;;;3.05;;
18520;SDS011;9390;51.244;6.982;2023-05-07T01:02:24;8.52;;;3.15;;
18520;SDS011;9390;51.244;6.982;2023-05-07T01:04:56;8.73;;;3.60;;
18520;SDS011;9390;51.244;6.982;2023-05-07T01:07:28;8.50;;;3.95;;
18520;SDS011;9390;51.244;6.982;2023-05-07T01:09:59;12.82;;;4.68;;
18520;SDS011;9390;51.244;6.982;2023-05-07T01:12:31;9.18;;;4.20;;
18520;SDS011;9390;51.244;6.982;2023-05-07T01:15:04;9.57;;;4.47;;
18520;SDS011;9390;51.244;6.982;2023-05-07T01:17:40;8.45;;;3.70;;
18520;SDS011;9390;51.244;6.982;2023-05-07T01:20:12;8.23;;;3.95;;
18520;SDS011;9390;51.244;6.982;2023-05-07T01:22:47;9.00;;;3.47;;
18520;SDS011;9390;51.244;6.982;2023-05-07T01:27:50;7.43;;;3.53;;
18520;SDS011;9390;51.244;6.982;2023-05-07T01:30:21;6.95;;;3.42;;
18520;SDS011;9390;51.244;6.982;2023-05-07T01:32:57;9.00;;;3.22;;
18520;SDS011;9390;51.244;6.982;2023-05-07T01:35:32;7.28;;;3.67;;
18520;SDS011;9390;51.244;6.982;2023-05-07T01:38:08;7.15;;;3.25;;
18520;SDS011;9390;51.244;6.982;2023-05-07T01:40:40;8.55;;;3.20;;
18520;SDS011;9390;51.244;6.982;2023-05-07T01:43:11;6.68;;;3.25;;
18520;SDS011;9390;51.244;6.982;2023-05-07T01:45:43;10.75;;;3.88;;
18520;SDS011;9390;51.244;6.982;2023-05-07T01:48:15;7.65;;;3.20;;
18520;SDS011;9390;51.244;6.982;2023-05-07T01:50:47;8.20;;;3.53;;
18520;SDS011;9390;51.244;6.982;2023-05-07T01:53:20;7.53;;;3.53;;
18520;SDS011;9390;51.244;6.982;2023-05-07T01:55:51;4.97;;;2.97;;
18520;SDS011;9390;51.244;6.982;2023-05-07T01:58:23;10.00;;;3.40;;
18520;SDS011;9390;51.244;6.982;2023-05-07T02:00:54;9.40;;;3.00;;
18520;SDS011;9390;51.244;6.982;2023-05-07T02:03:26;10.25;;;3.03;;
18520;SDS011;9390;51.244;6.982;2023-05-07T02:05:57;7.18;;;3.13;;
18520;SDS011;9390;51.244;6.982;2023-05-07T02:08:30;6.50;;;3.20;;
18520;SDS011;9390;51.244;6.982;2023-05-07T02:11:01;7.85;;;3.08;;
18520;SDS011;9390;51.244;6.982;2023-05-07T02:13:33;6.00;;;3.17;;
18520;SDS011;9390;51.244;6.982;2023-05-07T02:16:05;7.43;;;3.33;;
18520;SDS011;9390;51.244;6.982;2023-05-07T02:18:37;6.82;;;2.92;;
18520;SDS011;9390;51.244;6.982;2023-05-07T02:21:08;9.63;;;3.00;;
18520;SDS011;9390;51.244;6.982;2023-05-07T02:23:41;5.22;;;2.50;;
18520;SDS011;9390;51.244;6.982;2023-05-07T02:26:13;7.07;;;2.83;;
18520;SDS011;9390;51.244;6.982;2023-05-07T02:28:44;7.47;;;2.53;;
18520;SDS011;9390;51.244;6.982;2023-05-07T02:31:15;4.93;;;2.70;;
18520;SDS011;9390;51.244;6.982;2023-05-07T02:33:47;6.65;;;3.10;;
18520;SDS011;9390;51.244;6.982;2023-05-07T02:36:18;9.77;;;3.10;;
18520;SDS011;9390;51.244;6.982;2023-05-07T02:38:51;6.65;;;2.92;;
18520;SDS011;9390;51.244;6.982;2023-05-07T02:41:22;5.93;;;2.85;;
18520;SDS011;9390;51.244;6.982;2023-05-07T02:43:53;5.82;;;2.80;;
18520;SDS011;9390;51.244;6.982;2023-05-07T02:46:25;6.25;;;2.75;;
18520;SDS011;9390;51.244;6.982;2023-05-07T02:48:56;5.47;;;3.05;;
18520;SDS011;9390;51.244;6.982;2023-05-07T02:51:29;5.68;;;2.90;;
18520;SDS011;9390;51.244;6.982;2023-05-07T02:54:02;6.28;;;2.92;;
18520;SDS011;9390;51.244;6.982;2023-05-07T02:59:05;6.90;;;3.08;;
18520;SDS011;9390;51.244;6.982;2023-05-07T03:01:37;5.32;;;2.42;;
18520;SDS011;9390;51.244;6.982;2023-05-07T03:04:08;6.32;;;2.50;;
18520;SDS011;9390;51.244;6.982;2023-05-07T03:06:40;4.97;;;2.35;;
18520;SDS011;9390;51.244;6.982;2023-05-07T03:09:13;4.88;;;2.35;;
18520;SDS011;9390;51.244;6.982;2023-05-07T03:11:44;3.58;;;2.30;;
18520;SDS011;9390;51.244;6.982;2023-05-07T03:14:16;5.50;;;2.60;;
18520;SDS011;9390;51.244;6.982;2023-05-07T03:16:47;6.60;;;2.78;;
18520;SDS011;9390;51.244;6.982;2023-05-07T03:19:19;7.57;;;2.90;;
18520;SDS011;9390;51.244;6.982;2023-05-07T03:21:51;6.93;;;2.60;;
18520;SDS011;9390;51.244;6.982;2023-05-07T03:24:23;5.95;;;2.65;;
18520;SDS011;9390;51.244;6.982;2023-05-07T03:26:55;5.18;;;2.50;;
18520;SDS011;9390;51.244;6.982;2023-05-07T03:29:27;4.60;;;2.58;;
18520;SDS011;9390;51.244;6.982;2023-05-07T03:31:58;5.05;;;2.55;;
18520;SDS011;9390;51.244;6.982;2023-05-07T03:34:30;5.53;;;2.75;;
18520;SDS011;9390;51.244;6.982;2023-05-07T03:37:02;10.57;;;3.20;;
18520;SDS011;9390;51.244;6.982;2023-05-07T03:39:34;6.95;;;2.72;;
18520;SDS011;9390;51.244;6.982;2023-05-07T03:42:06;7.95;;;3.28;;
18520;SDS011;9390;51.244;6.982;2023-05-07T03:44:38;8.10;;;3.25;;
18520;SDS011;9390;51.244;6.982;2023-05-07T03:47:09;7.68;;;2.95;;
18520;SDS011;9390;51.244;6.982;2023-05-07T03:49:41;5.78;;;2.80;;
18520;SDS011;9390;51.244;6.982;2023-05-07T03:52:12;7.32;;;3.15;;
18520;SDS011;9390;51.244;6.982;2023-05-07T03:54:45;7.00;;;3.88;;
18520;SDS011;9390;51.244;6.982;2023-05-07T03:57:17;7.68;;;3.20;;
18520;SDS011;9390;51.244;6.982;2023-05-07T03:59:49;5.78;;;2.90;;
18520;SDS011;9390;51.244;6.982;2023-05-07T04:02:20;7.60;;;3.00;;
18520;SDS011;9390;51.244;6.982;2023-05-07T04:04:52;7.20;;;2.78;;
18520;SDS011;9390;51.244;6.982;2023-05-07T04:07:24;6.05;;;2.85;;
18520;SDS011;9390;51.244;6.982;2023-05-07T04:09:56;8.48;;;2.78;;
18520;SDS011;9390;51.244;6.982;2023-05-07T04:12:28;7.60;;;3.25;;
18520;SDS011;9390;51.244;6.982;2023-05-07T04:14:59;6.90;;;3.38;;
18520;SDS011;9390;51.244;6.982;2023-05-07T04:17:31;7.03;;;3.20;;
18520;SDS011;9390;51.244;6.982;2023-05-07T04:20:02;10.73;;;3.58;;
18520;SDS011;9390;51.244;6.982;2023-05-07T04:22:37;7.03;;;3.30;;
18520;SDS011;9390;51.244;6.982;2023-05-07T04:25:10;7.70;;;3.20;;
18520;SDS011;9390;51.244;6.982;2023-05-07T04:27:41;8.15;;;3.05;;
18520;SDS011;9390;51.244;6.982;2023-05-07T04:30:13;6.10;;;2.88;;
18520;SDS011;9390;51.244;6.982;2023-05-07T04:32:45;9.73;;;3.00;;
18520;SDS011;9390;51.244;6.982;2023-05-07T04:35:16;6.50;;;3.28;;
18520;SDS011;9390;51.244;6.982;2023-05-07T04:37:48;7.43;;;3.08;;
18520;SDS011;9390;51.244;6.982;2023-05-07T04:40:21;10.00;;;3.50;;
18520;SDS011;9390;51.244;6.982;2023-05-07T04:42:53;5.88;;;3.10;;
18520;SDS011;9390;51.244;6.982;2023-05-07T04:45:24;9.68;;;3.55;;
18520;SDS011;9390;51.244;6.982;2023-05-07T04:47:56;11.25;;;4.15;;
18520;SDS011;9390;51.244;6.982;2023-05-07T04:50:27;8.93;;;3.72;;
18520;SDS011;9390;51.244;6.982;2023-05-07T04:52:58;8.02;;;3.50;;
18520;SDS011;9390;51.244;6.982;2023-05-07T04:55:31;6.05;;;3.17;;
18520;SDS011;9390;51.244;6.982;2023-05-07T04:58:03;7.75;;;3.05;;
18520;SDS011;9390;51.244;6.982;2023-05-07T05:00:34;7.13;;;3.00;;
18520;SDS011;9390;51.244;6.982;2023-05-07T05:03:06;6.15;;;2.83;;
18520;SDS011;9390;51.244;6.982;2023-05-07T05:05:37;8.20;;;3.03;;
18520;SDS011;9390;51.244;6.982;2023-05-07T05:08:09;7.80;;;2.97;;
18520;SDS011;9390;51.244;6.982;2023-05-07T05:10:41;7.65;;;3.28;;
18520;SDS011;9390;51.244;6.982;2023-05-07T05:13:13;6.80;;;3.30;;
18520;SDS011;9390;51.244;6.982;2023-05-07T05:15:44;6.15;;;2.92;;
18520;SDS011;9390;51.244;6.982;2023-05-07T05:18:16;7.82;;;2.70;;
18520;SDS011;9390;51.244;6.982;2023-05-07T05:20:47;6.72;;;2.97;;
18520;SDS011;9390;51.244;6.982;2023-05-07T05:23:19;6.43;;;2.60;;
18520;SDS011;9390;51.244;6.982;2023-05-07T05:25:56;5.38;;;2.70;;
18520;SDS011;9390;51.244;6.982;2023-05-07T05:28:28;5.60;;;2.50;;
18520;SDS011;9390;51.244;6.982;2023-05-07T05:30:59;6.93;;;2.80;;
18520;SDS011;9390;51.244;6.982;2023-05-07T05:33:31;4.65;;;2.20;;
18520;SDS011;9390;51.244;6.982;2023-05-07T05:36:03;6.93;;;2.42;;
18520;SDS011;9390;51.244;6.982;2023-05-07T05:38:34;6.07;;;2.40;;
18520;SDS011;9390;51.244;6.982;2023-05-07T05:41:07;6.13;;;2.33;;
18520;SDS011;9390;51.244;6.982;2023-05-07T05:43:39;8.23;;;2.72;;
18520;SDS011;9390;51.244;6.982;2023-05-07T05:46:10;6.18;;;2.78;;
18520;SDS011;9390;51.244;6.982;2023-05-07T05:48:42;11.88;;;2.70;;
18520;SDS011;9390;51.244;6.982;2023-05-07T05:51:13;8.55;;;2.40;;
18520;SDS011;9390;51.244;6.982;2023-05-07T05:53:44;6.30;;;2.80;;
18520;SDS011;9390;51.244;6.982;2023-05-07T05:56:17;9.05;;;2.67;;
18520;SDS011;9390;51.244;6.982;2023-05-07T05:58:48;6.97;;;2.72;;
18520;SDS011;9390;51.244;6.982;2023-05-07T06:01:20;10.98;;;2.78;;
18520;SDS011;9390;51.244;6.982;2023-05-07T06:03:51;10.02;;;3.63;;
18520;SDS011;9390;51.244;6.982;2023-05-07T06:06:23;7.57;;;2.92;;
18520;SDS011;9390;51.244;6.982;2023-05-07T06:08:54;10.57;;;2.75;;
18520;SDS011;9390;51.244;6.982;2023-05-07T06:11:27;10.10;;;2.50;;
18520;SDS011;9390;51.244;6.982;2023-05-07T06:13:58;8.50;;;2.83;;
18520;SDS011;9390;51.244;6.982;2023-05-07T06:16:30;7.30;;;2.70;;
18520;SDS011;9390;51.244;6.982;2023-05-07T06:19:01;7.63;;;2.92;;
18520;SDS011;9390;51.244;6.982;2023-05-07T06:21:33;7.63;;;2.22;;
18520;SDS011;9390;51.244;6.982;2023-05-07T06:24:04;7.88;;;2.72;;
18520;SDS011;9390;51.244;6.982;2023-05-07T06:26:37;9.40;;;2.47;;
18520;SDS011;9390;51.244;6.982;2023-05-07T06:29:09;6.15;;;2.30;;
18520;SDS011;9390;51.244;6.982;2023-05-07T06:31:41;9.05;;;2.25;;
18520;SDS011;9390;51.244;6.982;2023-05-07T06:34:12;5.45;;;2.10;;
18520;SDS011;9390;51.244;6.982;2023-05-07T06:36:45;8.05;;;2.40;;
18520;SDS011;9390;51.244;6.982;2023-05-07T06:39:16;11.23;;;2.60;;
18520;SDS011;9390;51.244;6.982;2023-05-07T06:41:49;7.32;;;2.53;;
18520;SDS011;9390;51.244;6.982;2023-05-07T06:44:20;7.60;;;2.72;;
18520;SDS011;9390;51.244;6.982;2023-05-07T06:46:51;6.68;;;2.97;;
18520;SDS011;9390;51.244;6.982;2023-05-07T06:49:23;9.02;;;2.40;;
18520;SDS011;9390;51.244;6.982;2023-05-07T06:51:54;7.55;;;2.13;;
18520;SDS011;9390;51.244;6.982;2023-05-07T06:54:26;10.02;;;2.50;;
18520;SDS011;9390;51.244;6.982;2023-05-07T06:56:59;7.38;;;2.30;;
18520;SDS011;9390;51.244;6.982;2023-05-07T06:59:30;6.43;;;2.25;;
18520;SDS011;9390;51.244;6.982;2023-05-07T07:02:02;6.88;;;2.47;;
18520;SDS011;9390;51.244;6.982;2023-05-07T07:04:33;6.70;;;2.20;;
18520;SDS011;9390;51.244;6.982;2023-05-07T07:07:04;6.32;;;2.25;;
18520;SDS011;9390;51.244;6.982;2023-05-07T07:09:36;4.10;;;1.90;;
18520;SDS011;9390;51.244;6.982;2023-05-07T07:12:09;9.90;;;1.77;;
18520;SDS011;9390;51.244;6.982;2023-05-07T07:14:40;7.63;;;2.17;;
18520;SDS011;9390;51.244;6.982;2023-05-07T07:17:12;5.32;;;2.00;;
18520;SDS011;9390;51.244;6.982;2023-05-07T07:19:43;4.57;;;1.95;;
18520;SDS011;9390;51.244;6.982;2023-05-07T07:22:14;6.53;;;2.17;;
18520;SDS011;9390;51.244;6.982;2023-05-07T07:24:46;7.43;;;2.40;;
18520;SDS011;9390;51.244;6.982;2023-05-07T07:27:18;5.65;;;1.95;;
18520;SDS011;9390;51.244;6.982;2023-05-07T07:29:50;3.80;;;1.80;;
18520;SDS011;9390;51.244;6.982;2023-05-07T07:32:21;7.00;;;2.00;;
18520;SDS011;9390;51.244;6.982;2023-05-07T07:34:53;11.52;;;2.20;;
18520;SDS011;9390;51.244;6.982;2023-05-07T07:37:24;3.63;;;1.75;;
18520;SDS011;9390;51.244;6.982;2023-05-07T07:39:56;4.97;;;2.08;;
18520;SDS011;9390;51.244;6.982;2023-05-07T07:42:29;4.85;;;2.13;;
18520;SDS011;9390;51.244;6.982;2023-05-07T07:45:00;3.72;;;1.98;;
18520;SDS011;9390;51.244;6.982;2023-05-07T07:47:32;7.32;;;1.90;;
18520;SDS011;9390;51.244;6.982;2023-05-07T07:50:04;5.00;;;1.90;;
18520;SDS011;9390;51.244;6.982;2023-05-07T07:52:37;4.82;;;1.90;;
18520;SDS011;9390;51.244;6.982;2023-05-07T07:55:08;5.35;;;1.65;;
18520;SDS011;9390;51.244;6.982;2023-05-07T07:57:41;7.18;;;1.98;;
18520;SDS011;9390;51.244;6.982;2023-05-07T08:00:13;4.63;;;2.00;;
18520;SDS011;9390;51.244;6.982;2023-05-07T08:02:45;4.88;;;1.80;;
18520;SDS011;9390;51.244;6.982;2023-05-07T08:05:16;4.53;;;1.83;;
18520;SDS011;9390;51.244;6.982;2023-05-07T08:07:48;4.47;;;1.60;;
18520;SDS011;9390;51.244;6.982;2023-05-07T08:10:22;4.82;;;1.90;;
18520;SDS011;9390;51.244;6.982;2023-05-07T08:12:54;5.85;;;1.65;;
18520;SDS011;9390;51.244;6.982;2023-05-07T08:15:26;6.25;;;1.80;;
18520;SDS011;9390;51.244;6.982;2023-05-07T08:17:57;3.80;;;1.80;;
18520;SDS011;9390;51.244;6.982;2023-05-07T08:20:30;5.50;;;2.05;;
18520;SDS011;9390;51.244;6.982;2023-05-07T08:23:01;4.97;;;1.80;;
18520;SDS011;9390;51.244;6.982;2023-05-07T08:25:32;3.08;;;1.60;;
18520;SDS011;9390;51.244;6.982;2023-05-07T08:28:05;7.05;;;1.63;;
18520;SDS011;9390;51.244;6.982;2023-05-07T08:30:37;5.78;;;1.88;;
18520;SDS011;9390;51.244;6.982;2023-05-07T08:33:08;3.53;;;1.70;;
18520;SDS011;9390;51.244;6.982;2023-05-07T08:35:40;6.47;;;1.83;;
18520;SDS011;9390;51.244;6.982;2023-05-07T08:38:11;3.97;;;1.75;;
18520;SDS011;9390;51.244;6.982;2023-05-07T08:40:43;4.82;;;1.70;;
18520;SDS011;9390;51.244;6.982;2023-05-07T08:43:16;3.92;;;1.80;;
18520;SDS011;9390;51.244;6.982;2023-05-07T08:45:48;3.30;;;1.40;;
18520;SDS011;9390;51.244;6.982;2023-05-07T08:48:21;6.78;;;1.60;;
18520;SDS011;9390;51.244;6.982;2023-05-07T08:50:57;3.40;;;1.50;;
18520;SDS011;9390;51.244;6.982;2023-05-07T08:53:28;4.85;;;1.40;;
18520;SDS011;9390;51.244;6.982;2023-05-07T08:56:00;3.67;;;1.20;;
18520;SDS011;9390;51.244;6.982;2023-05-07T08:58:33;3.90;;;1.40;;
18520;SDS011;9390;51.244;6.982;2023-05-07T09:01:07;3.30;;;1.42;;
18520;SDS011;9390;51.244;6.982;2023-05-07T09:03:40;3.63;;;1.40;;
18520;SDS011;9390;51.244;6.982;2023-05-07T09:06:12;3.63;;;1.60;;
18520;SDS011;9390;51.244;6.982;2023-05-07T09:08:48;2.07;;;1.30;;
18520;SDS011;9390;51.244;6.982;2023-05-07T09:11:24;2.70;;;1.40;;
18520;SDS011;9390;51.244;6.982;2023-05-07T09:13:57;3.13;;;1.60;;
18520;SDS011;9390;51.244;6.982;2023-05-07T09:16:34;4.85;;;1.50;;
18520;SDS011;9390;51.244;6.982;2023-05-07T09:19:06;3.60;;;1.70;;
18520;SDS011;9390;51.244;6.982;2023-05-07T09:21:38;3.15;;;1.52;;
18520;SDS011;9390;51.244;6.982;2023-05-07T09:24:14;4.10;;;1.30;;
18520;SDS011;9390;51.244;6.982;2023-05-07T09:26:46;4.88;;;1.55;;
18520;SDS011;9390;51.244;6.982;2023-05-07T09:29:20;4.17;;;1.40;;
18520;SDS011;9390;51.244;6.982;2023-05-07T09:31:52;4.70;;;1.63;;
18520;SDS011;9390;51.244;6.982;2023-05-07T09:34:23;3.10;;;1.45;;
18520;SDS011;9390;51.244;6.982;2023-05-07T09:36:56;4.40;;;1.43;;
18520;SDS011;9390;51.244;6.982;2023-05-07T09:39:38;6.00;;;1.30;;
18520;SDS011;9390;51.244;6.982;2023-05-07T09:42:22;2.88;;;1.38;;
18520;SDS011;9390;51.244;6.982;2023-05-07T09:45:07;3.95;;;1.52;;
18520;SDS011;9390;51.244;6.982;2023-05-07T09:48:04;4.32;;;1.33;;
18520;SDS011;9390;51.244;6.982;2023-05-07T09:50:40;5.00;;;1.33;;
18520;SDS011;9390;51.244;6.982;2023-05-07T09:53:15;3.50;;;1.30;;
18520;SDS011;9390;51.244;6.982;2023-05-07T09:55:48;3.85;;;1.40;;
18520;SDS011;9390;51.244;6.982;2023-05-07T09:58:20;1.77;;;1.03;;
18520;SDS011;9390;51.244;6.982;2023-05-07T10:00:54;5.57;;;1.30;;
18520;SDS011;9390;51.244;6.982;2023-05-07T10:03:27;3.22;;;1.10;;
18520;SDS011;9390;51.244;6.982;2023-05-07T10:06:00;2.50;;;1.48;;
18520;SDS011;9390;51.244;6.982;2023-05-07T10:08:33;4.10;;;1.40;;
18520;SDS011;9390;51.244;6.982;2023-05-07T10:11:05;4.25;;;1.30;;
18520;SDS011;9390;51.244;6.982;2023-05-07T10:13:37;4.03;;;1.40;;
18520;SDS011;9390;51.244;6.982;2023-05-07T10:16:11;2.63;;;1.15;;
18520;SDS011;9390;51.244;6.982;2023-05-07T10:18:43;2.58;;;1.30;;
18520;SDS011;9390;51.244;6.982;2023-05-07T10:21:16;3.20;;;1.35;;
18520;SDS011;9390;51.244;6.982;2023-05-07T10:23:50;4.57;;;1.48;;
18520;SDS011;9390;51.244;6.982;2023-05-07T10:26:22;4.57;;;1.38;;
18520;SDS011;9390;51.244;6.982;2023-05-07T10:28:56;4.80;;;1.38;;
18520;SDS011;9390;51.244;6.982;2023-05-07T10:31:39;2.50;;;1.20;;
18520;SDS011;9390;51.244;6.982;2023-05-07T10:34:21;3.22;;;1.17;;
18520;SDS011;9390;51.244;6.982;2023-05-07T10:36:54;4.38;;;1.58;;
18520;SDS011;9390;51.244;6.982;2023-05-07T10:39:27;2.65;;;1.30;;
18520;SDS011;9390;51.244;6.982;2023-05-07T10:42:07;3.00;;;1.40;;
18520;SDS011;9390;51.244;6.982;2023-05-07T10:44:39;4.90;;;1.00;;
18520;SDS011;9390;51.244;6.982;2023-05-07T10:47:16;5.07;;;1.33;;
18520;SDS011;9390;51.244;6.982;2023-05-07T11:02:05;3.15;;;1.45;;
18520;SDS011;9390;51.244;6.982;2023-05-07T11:04:39;2.65;;;1.20;;
18520;SDS011;9390;51.244;6.982;2023-05-07T11:10:05;4.05;;;1.23;;
18520;SDS011;9390;51.244;6.982;2023-05-07T11:12:47;9.43;;;1.60;;
18520;SDS011;9390;51.244;6.982;2023-05-07T11:15:36;2.45;;;1.40;;
18520;SDS011;9390;51.244;6.982;2023-05-07T11:18:13;3.22;;;1.52;;
18520;SDS011;9390;51.244;6.982;2023-05-07T11:26:30;4.13;;;1.30;;
18520;SDS011;9390;51.244;6.982;2023-05-07T11:29:03;2.90;;;1.25;;
18520;SDS011;9390;51.244;6.982;2023-05-07T11:31:42;4.47;;;1.40;;
18520;SDS011;9390;51.244;6.982;2023-05-07T11:34:14;3.72;;;1.10;;
18520;SDS011;9390;51.244;6.982;2023-05-07T11:36:48;2.78;;;1.10;;
18520;SDS011;9390;51.244;6.982;2023-05-07T11:39:24;2.70;;;1.00;;
18520;SDS011;9390;51.244;6.982;2023-05-07T11:41:56;4.10;;;1.40;;
18520;SDS011;9390;51.244;6.982;2023-05-07T11:44:43;3.65;;;1.33;;
18520;SDS011;9390;51.244;6.982;2023-05-07T11:47:17;3.05;;;1.23;;
18520;SDS011;9390;51.244;6.982;2023-05-07T11:49:49;3.72;;;1.40;;
18520;SDS011;9390;51.244;6.982;2023-05-07T11:52:24;2.78;;;1.30;;
18520;SDS011;9390;51.244;6.982;2023-05-07T11:54:56;4.30;;;1.50;;
18520;SDS011;9390;51.244;6.982;2023-05-07T11:57:29;4.15;;;1.70;;
18520;SDS011;9390;51.244;6.982;2023-05-07T12:00:02;3.10;;;1.40;;
18520;SDS011;9390;51.244;6.982;2023-05-07T12:02:35;3.47;;;1.60;;
18520;SDS011;9390;51.244;6.982;2023-05-07T12:05:07;4.40;;;1.48;;
18520;SDS011;9390;51.244;6.982;2023-05-07T12:07:41;6.07;;;2.63;;
18520;SDS011;9390;51.244;6.982;2023-05-07T12:10:13;4.20;;;1.80;;
18520;SDS011;9390;51.244;6.982;2023-05-07T12:12:45;4.35;;;1.60;;
18520;SDS011;9390;51.244;6.982;2023-05-07T12:15:17;5.22;;;1.98;;
18520;SDS011;9390;51.244;6.982;2023-05-07T12:17:53;4.30;;;1.90;;
18520;SDS011;9390;51.244;6.982;2023-05-07T12:20:25;6.93;;;2.65;;
18520;SDS011;9390;51.244;6.982;2023-05-07T12:22:58;4.93;;;2.10;;
18520;SDS011;9390;51.244;6.982;2023-05-07T12:25:30;5.55;;;2.03;;
18520;SDS011;9390;51.244;6.982;2023-05-07T12:28:02;9.73;;;2.30;;
18520;SDS011;9390;51.244;6.982;2023-05-07T12:30:36;5.63;;;2.42;;
18520;SDS011;9390;51.244;6.982;2023-05-07T12:33:08;5.78;;;2.00;;
18520;SDS011;9390;51.244;6.982;2023-05-07T12:35:40;4.45;;;2.25;;
18520;SDS011;9390;51.244;6.982;2023-05-07T12:38:15;6.95;;;2.40;;
18520;SDS011;9390;51.244;6.982;2023-05-07T12:40:47;5.38;;;2.28;;
18520;SDS011;9390;51.244;6.982;2023-05-07T12:43:21;4.38;;;2.05;;
18520;SDS011;9390;51.244;6.982;2023-05-07T12:45:55;5.28;;;2.15;;
18520;SDS011;9390;51.244;6.982;2023-05-07T12:48:27;5.05;;;2.10;;
18520;SDS011;9390;51.244;6.982;2023-05-07T12:50:59;9.52;;;2.47;;
18520;SDS011;9390;51.244;6.982;2023-05-07T12:56:06;5.20;;;2.42;;
18520;SDS011;9390;51.244;6.982;2023-05-07T12:58:38;8.13;;;2.78;;
18520;SDS011;9390;51.244;6.982;2023-05-07T13:01:09;8.57;;;2.85;;
18520;SDS011;9390;51.244;6.982;2023-05-07T13:03:48;7.80;;;3.10;;
18520;SDS011;9390;51.244;6.982;2023-05-07T13:06:20;6.60;;;2.78;;
18520;SDS011;9390;51.244;6.982;2023-05-07T13:08:53;8.52;;;2.80;;
18520;SDS011;9390;51.244;6.982;2023-05-07T13:11:24;7.72;;;3.40;;
18520;SDS011;9390;51.244;6.982;2023-05-07T13:13:56;7.78;;;2.75;;
18520;SDS011;9390;51.244;6.982;2023-05-07T13:16:27;7.15;;;3.22;;
18520;SDS011;9390;51.244;6.982;2023-05-07T13:18:59;8.93;;;2.90;;
18520;SDS011;9390;51.244;6.982;2023-05-07T13:21:30;6.15;;;2.72;;
18520;SDS011;9390;51.244;6.982;2023-05-07T13:24:04;8.85;;;3.17;;
18520;SDS011;9390;51.244;6.982;2023-05-07T13:26:36;9.05;;;3.40;;
18520;SDS011;9390;51.244;6.982;2023-05-07T13:29:08;6.78;;;3.30;;
18520;SDS011;9390;51.244;6.982;2023-05-07T13:31:39;8.77;;;3.20;;
18520;SDS011;9390;51.244;6.982;2023-05-07T13:34:13;7.45;;;3.10;;
18520;SDS011;9390;51.244;6.982;2023-05-07T13:36:45;5.18;;;2.75;;
18520;SDS011;9390;51.244;6.982;2023-05-07T13:39:18;5.82;;;3.00;;
18520;SDS011;9390;51.244;6.982;2023-05-07T13:41:50;6.72;;;3.42;;
18520;SDS011;9390;51.244;6.982;2023-05-07T13:44:22;8.13;;;4.20;;
18520;SDS011;9390;51.244;6.982;2023-05-07T13:46:54;8.80;;;3.83;;
18520;SDS011;9390;51.244;6.982;2023-05-07T13:49:26;7.28;;;3.60;;
18520;SDS011;9390;51.244;6.982;2023-05-07T13:51:58;8.07;;;4.17;;
18520;SDS011;9390;51.244;6.982;2023-05-07T13:54:31;9.63;;;5.10;;
18520;SDS011;9390;51.244;6.982;2023-05-07T13:57:03;10.20;;;5.22;;
18520;SDS011;9390;51.244;6.982;2023-05-07T13:59:35;12.17;;;6.13;;
18520;SDS011;9390;51.244;6.982;2023-05-07T14:02:06;9.63;;;5.83;;
18520;SDS011;9390;51.244;6.982;2023-05-07T14:04:39;12.98;;;6.97;;
18520;SDS011;9390;51.244;6.982;2023-05-07T14:07:11;15.32;;;7.22;;
18520;SDS011;9390;51.244;6.982;2023-05-07T14:09:44;12.38;;;7.05;;
18520;SDS011;9390;51.244;6.982;2023-05-07T14:12:16;13.55;;;7.53;;
18520;SDS011;9390;51.244;6.982;2023-05-07T14:14:49;15.75;;;8.23;;
18520;SDS011;9390;51.244;6.982;2023-05-07T14:17:21;14.50;;;8.55;;
18520;SDS011;9390;51.244;6.982;2023-05-07T14:19:53;16.08;;;8.88;;
18520;SDS011;9390;51.244;6.982;2023-05-07T14:22:28;16.48;;;9.70;;
18520;SDS011;9390;51.244;6.982;2023-05-07T14:25:02;19.98;;;10.27;;
18520;SDS011;9390;51.244;6.982;2023-05-07T14:27:34;20.77;;;10.43;;
18520;SDS011;9390;51.244;6.982;2023-05-07T14:30:06;20.92;;;10.95;;
18520;SDS011;9390;51.244;6.982;2023-05-07T14:32:39;21.75;;;11.23;;
18520;SDS011;9390;51.244;6.982;2023-05-07T14:35:12;20.75;;;11.88;;
18520;SDS011;9390;51.244;6.982;2023-05-07T14:37:43;21.33;;;13.15;;
18520;SDS011;9390;51.244;6.982;2023-05-07T14:40:16;24.73;;;13.38;;
18520;SDS011;9390;51.244;6.982;2023-05-07T14:42:49;24.15;;;13.50;;
18520;SDS011;9390;51.244;6.982;2023-05-07T14:45:21;23.50;;;14.13;;
18520;SDS011;9390;51.244;6.982;2023-05-07T14:47:53;24.10;;;14.00;;
18520;SDS011;9390;51.244;6.982;2023-05-07T14:50:25;27.42;;;14.32;;
18520;SDS011;9390;51.244;6.982;2023-05-07T14:52:58;24.38;;;13.25;;
18520;SDS011;9390;51.244;6.982;2023-05-07T14:55:43;24.80;;;13.82;;
18520;SDS011;9390;51.244;6.982;2023-05-07T14:58:15;27.70;;;14.02;;
18520;SDS011;9390;51.244;6.982;2023-05-07T15:00:47;29.77;;;15.27;;
18520;SDS011;9390;51.244;6.982;2023-05-07T15:10:05;33.20;;;15.63;;
18520;SDS011;9390;51.244;6.982;2023-05-07T15:12:38;39.80;;;16.30;;
18520;SDS011;9390;51.244;6.982;2023-05-07T15:15:10;26.52;;;14.20;;
18520;SDS011;9390;51.244;6.982;2023-05-07T15:17:41;25.38;;;15.43;;
18520;SDS011;9390;51.244;6.982;2023-05-07T15:20:13;30.60;;;15.77;;
18520;SDS011;9390;51.244;6.982;2023-05-07T15:22:44;31.80;;;17.90;;
18520;SDS011;9390;51.244;6.982;2023-05-07T15:25:16;30.75;;;17.15;;
18520;SDS011;9390;51.244;6.982;2023-05-07T15:27:48;34.17;;;15.63;;
18520;SDS011;9390;51.244;6.982;2023-05-07T15:30:20;29.20;;;15.68;;
18520;SDS011;9390;51.244;6.982;2023-05-07T15:32:51;29.65;;;15.77;;
18520;SDS011;9390;51.244;6.982;2023-05-07T15:35:23;27.30;;;15.38;;
18520;SDS011;9390;51.244;6.982;2023-05-07T15:37:55;36.03;;;17.60;;
18520;SDS011;9390;51.244;6.982;2023-05-07T15:40:27;28.27;;;15.48;;
18520;SDS011;9390;51.244;6.982;2023-05-07T15:43:00;28.20;;;15.15;;
18520;SDS011;9390;51.244;6.982;2023-05-07T15:45:32;25.88;;;14.98;;
18520;SDS011;9390;51.244;6.982;2023-05-07T15:48:03;26.45;;;14.75;;
18520;SDS011;9390;51.244;6.982;2023-05-07T15:50:36;25.98;;;13.98;;
18520;SDS011;9390;51.244;6.982;2023-05-07T15:53:08;23.90;;;14.00;;
18520;SDS011;9390;51.244;6.982;2023-05-07T15:55:39;26.67;;;14.68;;
18520;SDS011;9390;51.244;6.982;2023-05-07T15:58:13;26.02;;;14.95;;
18520;SDS011;9390;51.244;6.982;2023-05-07T16:00:44;25.65;;;14.27;;
18520;SDS011;9390;51.244;6.982;2023-05-07T16:03:16;25.25;;;14.13;;
18520;SDS011;9390;51.244;6.982;2023-05-07T16:05:47;25.63;;;13.50;;